Capitol Logistics 310


CYHZ
Robert L. Stanfield International Airport
Halifax, CA
KRFD
Chicago/Rockford International Airport
Rockford, US

Route Details

Aircraft Information
Primary: Boeing 767-300BDSF
Backup: Not Available
Route Data
Distance: 1123nm
Sched. Duration: 2h 29m
Avg. Duration: 3h 13m (+83m)
Times Flown: 6
Recm'd Route: YSJ DERDO YUL Q824 LETAK Q848 SLLAP BAE
Planned Altitude: 34,000ft
Origin Wx: CYHZ 210200Z 34007KT 15SM FEW030 M14/M19 A3028 RMK SC1 SLP266
Dest. Wx: KRFD 210154Z 27004KT 10SM CLR M12/M18 A3070 RMK AO2 SLP414 T11171178
Notes: LOBSTER KING

Financial History
Total Freight: 690,420lbs
Average Load: 115,070lbs/flt
Fuel Used: 213,266lbs
Avg. Fuel Used: 35,544lbs/flt
Fuel Expense: $170,613
Avg. Fuel Expense: $28,435
Avg. Fuel Cost: $0.80/lbs
Total Gross Income: $1,081,380
Pilot Pay: $1,184
Total Expenses: $117,101
Total Revenue: $789,824
Average Revenue: $180,230.05